Time;durP1;ratioP1;P1;durP2;ratioP2;P2;SDS_P1;SDS_P2;PMS_P1;PMS_P2;Temp;Humidity;BMP_temperature;BMP_pressure;BME280_temperature;BME280_humidity;BME280_pressure;Samples;Min_cycle;Max_cycle;Signal;HPM_P1;HPM_P2
2021/11/07 00:00:44;;;;;;;0.60;0.60;;;21.30;52.60;;;;;;6244795;28;20024;-64
2021/11/07 00:04:02;;;;;;;0.68;0.50;;;21.30;52.70;;;;;;6244285;28;20033;-64
2021/11/07 00:10:11;;;;;;;0.85;0.52;;;21.20;52.60;;;;;;6269361;28;20056;-64
2021/11/07 00:16:23;;;;;;;0.40;0.40;;;21.30;52.70;;;;;;6269129;28;20032;-65
2021/11/07 00:22:56;;;;;;;0.50;0.43;;;21.20;52.50;;;;;;6223863;28;20079;-64
2021/11/07 00:25:56;;;;;;;0.65;0.40;;;21.30;52.60;;;;;;6247581;28;20032;-64
2021/11/07 00:29:06;;;;;;;0.52;0.47;;;21.30;52.70;;;;;;6268341;28;20049;-64
2021/11/07 00:32:29;;;;;;;0.55;0.47;;;21.30;52.70;;;;;;6232785;28;20022;-64
2021/11/07 00:42:01;;;;;;;0.57;0.50;;;21.20;52.60;;;;;;6258349;28;20140;-66
2021/11/07 00:45:10;;;;;;;1.58;0.80;;;21.20;52.60;;;;;;6243799;28;20599;-66
2021/11/07 00:55:06;;;;;;;0.40;0.40;;;21.20;52.60;;;;;;6243874;28;20060;-66
2021/11/07 00:58:12;;;;;;;0.38;0.35;;;21.20;52.60;;;;;;6261817;28;20029;-66
2021/11/07 01:01:14;;;;;;;0.50;0.47;;;21.30;52.70;;;;;;6266904;28;20060;-68
2021/11/07 01:04:15;;;;;;;0.90;0.50;;;21.30;52.70;;;;;;6243957;28;20127;-67
2021/11/07 01:07:20;;;;;;;0.70;0.43;;;21.20;52.60;;;;;;6253033;28;20021;-69
2021/11/07 01:10:21;;;;;;;;;;;21.20;52.60;;;;;;6267297;28;20021;-68
2021/11/07 01:13:22;;;;;;;0.65;0.40;;;21.20;52.60;;;;;;6268577;28;19939;-67
2021/11/07 01:16:23;;;;;;;0.60;0.50;;;21.20;52.60;;;;;;6269223;28;20025;-65
2021/11/07 01:19:24;;;;;;;0.70;0.60;;;21.20;52.60;;;;;;6249314;28;20029;-68
2021/11/07 01:22:41;;;;;;;0.40;0.40;;;21.20;52.60;;;;;;6251974;28;20390;-68
2021/11/07 01:25:47;;;;;;;0.57;0.40;;;21.20;52.60;;;;;;6268645;28;20025;-67
2021/11/07 01:28:56;;;;;;;1.70;0.50;;;21.30;52.70;;;;;;6267386;28;20033;-66
2021/11/07 01:31:57;;;;;;;0.30;0.30;;;21.20;52.60;;;;;;6239225;28;20037;-68
2021/11/07 01:35:06;;;;;;;0.40;0.40;;;21.30;52.70;;;;;;6244088;28;20100;-67
2021/11/07 01:44:14;;;;;;;0.60;0.40;;;21.20;52.60;;;;;;6268510;28;20486;-67
2021/11/07 01:47:16;;;;;;;0.45;0.43;;;21.20;52.70;;;;;;6261438;28;20035;-66
2021/11/07 01:50:17;;;;;;;0.57;0.50;;;21.20;52.70;;;;;;6271769;28;20040;-66
2021/11/07 01:53:27;;;;;;;0.40;0.40;;;21.20;52.70;;;;;;6252111;28;20479;-67
2021/11/07 01:56:29;;;;;;;0.77;0.65;;;21.20;52.70;;;;;;6251344;28;20017;-67
2021/11/07 01:59:29;;;;;;;3.38;0.60;;;21.30;52.70;;;;;;6273245;28;20079;-66
2021/11/07 02:02:34;;;;;;;1.10;0.60;;;21.20;52.60;;;;;;6253837;28;20026;-66
2021/11/07 02:05:35;;;;;;;0.47;0.47;;;21.20;52.50;;;;;;6248049;28;20109;-67
2021/11/07 02:08:36;;;;;;;0.63;0.60;;;21.20;52.50;;;;;;6263415;28;20709;-67
2021/11/07 02:11:37;;;;;;;0.60;0.50;;;21.20;52.50;;;;;;6270919;28;20036;-66
2021/11/07 02:14:39;;;;;;;0.70;0.50;;;21.20;52.50;;;;;;6259152;28;20072;-67
2021/11/07 02:17:40;;;;;;;0.50;0.40;;;21.20;52.50;;;;;;6240905;28;20036;-65
2021/11/07 02:20:42;;;;;;;0.52;0.50;;;21.30;52.70;;;;;;6222866;28;20022;-66
2021/11/07 02:23:43;;;;;;;0.40;0.38;;;21.20;52.60;;;;;;6252307;28;20517;-67
2021/11/07 02:26:51;;;;;;;0.90;0.60;;;21.20;52.60;;;;;;6260361;28;20033;-66
2021/11/07 02:29:51;;;;;;;0.50;0.50;;;21.20;52.60;;;;;;6247261;28;20060;-67
2021/11/07 02:32:52;;;;;;;0.85;0.40;;;21.20;52.70;;;;;;6254058;28;20021;-67
2021/11/07 02:35:53;;;;;;;0.50;0.50;;;21.20;52.70;;;;;;6248810;28;20391;-66
2021/11/07 02:38:53;;;;;;;1.10;0.50;;;21.20;52.70;;;;;;6271611;28;20027;-67
2021/11/07 02:41:55;;;;;;;0.55;0.50;;;21.20;52.70;;;;;;6271601;28;20386;-67
2021/11/07 02:44:55;;;;;;;0.50;0.47;;;21.20;52.60;;;;;;6271568;28;20493;-66
2021/11/07 02:47:56;;;;;;;0.63;0.40;;;21.20;52.70;;;;;;6252908;28;20022;-67
2021/11/07 02:50:57;;;;;;;0.40;0.35;;;21.20;52.70;;;;;;6247886;28;20022;-66
2021/11/07 02:53:59;;;;;;;0.85;0.50;;;21.20;52.80;;;;;;6246773;28;20360;-65
2021/11/07 02:57:01;;;;;;;0.40;0.40;;;21.20;52.80;;;;;;6237666;28;20033;-66
2021/11/07 03:00:06;;;;;;;1.02;0.60;;;21.20;52.70;;;;;;6221389;28;20072;-66
2021/11/07 03:03:06;;;;;;;0.63;0.52;;;21.20;52.70;;;;;;6255699;28;20074;-67
2021/11/07 03:06:07;;;;;;;0.70;0.50;;;21.20;52.60;;;;;;6270632;28;20029;-66
2021/11/07 03:09:13;;;;;;;0.30;0.30;;;21.20;52.70;;;;;;6271205;28;20033;-67
2021/11/07 03:12:14;;;;;;;0.55;0.40;;;21.20;52.80;;;;;;6252907;28;20041;-65
2021/11/07 03:15:15;;;;;;;0.40;0.30;;;21.20;52.70;;;;;;6222249;28;20014;-65
2021/11/07 03:18:15;;;;;;;0.70;0.40;;;21.20;52.80;;;;;;6237839;28;20032;-65
2021/11/07 03:21:19;;;;;;;0.40;0.40;;;21.20;52.70;;;;;;6246108;28;20056;-64
2021/11/07 03:24:20;;;;;;;0.80;0.57;;;21.20;52.70;;;;;;6236103;28;20116;-64
2021/11/07 03:27:27;;;;;;;0.63;0.50;;;21.20;52.70;;;;;;6266479;28;20104;-64
2021/11/07 03:33:44;;;;;;;0.52;0.50;;;21.20;52.80;;;;;;6264594;28;20047;-67
2021/11/07 03:36:50;;;;;;;0.40;0.40;;;21.20;52.80;;;;;;6250048;28;20022;-65
2021/11/07 03:39:54;;;;;;;1.17;0.40;;;21.20;52.80;;;;;;6221406;28;20018;-65
2021/11/07 03:42:57;;;;;;;0.82;0.55;;;21.20;52.80;;;;;;6239868;28;20087;-63
2021/11/07 03:45:58;;;;;;;1.08;0.60;;;21.20;52.90;;;;;;6247322;28;20020;-65
2021/11/07 03:48:59;;;;;;;0.40;0.40;;;21.20;52.80;;;;;;6268846;28;20029;-64
2021/11/07 03:52:00;;;;;;;0.55;0.50;;;21.20;52.80;;;;;;6269743;28;20104;-64
2021/11/07 03:55:01;;;;;;;0.47;0.47;;;21.20;52.80;;;;;;6270326;28;20035;-65
2021/11/07 03:58:01;;;;;;;0.80;0.40;;;21.20;52.80;;;;;;6269742;28;20448;-65
2021/11/07 04:01:02;;;;;;;0.60;0.50;;;21.20;52.70;;;;;;6269975;28;20029;-64
2021/11/07 04:04:05;;;;;;;0.70;0.50;;;21.20;52.80;;;;;;6269699;28;20064;-64
2021/11/07 04:07:06;;;;;;;0.40;0.40;;;21.20;52.80;;;;;;6264089;28;20048;-65
2021/11/07 04:10:09;;;;;;;0.35;0.35;;;21.20;52.70;;;;;;6244970;28;20030;-64
2021/11/07 04:13:10;;;;;;;0.98;0.60;;;21.20;52.80;;;;;;6256177;28;20036;-64
2021/11/07 04:16:11;;;;;;;0.52;0.30;;;21.20;52.80;;;;;;6269319;28;20021;-67
2021/11/07 04:19:12;;;;;;;0.40;0.40;;;21.20;52.70;;;;;;6250634;28;20116;-66
2021/11/07 04:22:13;;;;;;;0.80;0.40;;;21.20;52.80;;;;;;6246471;28;20090;-67
2021/11/07 04:25:14;;;;;;;0.60;0.40;;;21.20;52.80;;;;;;6263904;28;20390;-65
2021/11/07 04:28:15;;;;;;;0.60;0.50;;;21.20;52.80;;;;;;6266681;28;20035;-66
2021/11/07 04:31:16;;;;;;;0.50;0.50;;;21.20;52.90;;;;;;6269122;28;20025;-66
2021/11/07 04:34:17;;;;;;;0.45;0.30;;;21.20;52.80;;;;;;6244327;28;20013;-67
2021/11/07 04:37:18;;;;;;;0.40;0.40;;;21.20;52.90;;;;;;6229724;28;20036;-66
2021/11/07 04:40:19;;;;;;;0.70;0.45;;;21.20;52.90;;;;;;6219861;28;20084;-67
2021/11/07 04:43:21;;;;;;;0.40;0.40;;;21.20;52.90;;;;;;6241885;28;20109;-66
2021/11/07 04:46:22;;;;;;;0.55;0.40;;;21.20;52.90;;;;;;6244046;28;20022;-65
2021/11/07 04:49:23;;;;;;;0.43;0.40;;;21.20;52.80;;;;;;6243985;28;20057;-64
2021/11/07 04:52:23;;;;;;;0.47;0.40;;;21.20;52.80;;;;;;6234569;28;20095;-65
2021/11/07 04:55:24;;;;;;;0.40;0.40;;;21.20;52.90;;;;;;6219525;28;20026;-65
2021/11/07 04:58:25;;;;;;;0.32;0.32;;;21.20;52.90;;;;;;6260755;28;20017;-64
2021/11/07 05:01:26;;;;;;;0.50;0.47;;;21.20;52.80;;;;;;6267868;28;20394;-64
2021/11/07 05:04:27;;;;;;;0.50;0.38;;;21.20;52.80;;;;;;6268754;28;20040;-65
2021/11/07 05:07:27;;;;;;;0.30;0.30;;;21.20;52.80;;;;;;6249563;28;20026;-64
2021/11/07 05:10:28;;;;;;;0.45;0.40;;;21.20;52.80;;;;;;6234816;28;20372;-65
2021/11/07 05:13:29;;;;;;;0.57;0.38;;;21.20;52.80;;;;;;6251060;28;20491;-63
2021/11/07 05:16:29;;;;;;;0.82;0.60;;;21.20;52.90;;;;;;6267568;28;20025;-64
2021/11/07 05:19:30;;;;;;;0.82;0.50;;;21.20;52.80;;;;;;6220439;28;20463;-65
2021/11/07 05:22:31;;;;;;;1.02;0.40;;;21.20;52.80;;;;;;6232300;28;20025;-64
2021/11/07 05:25:32;;;;;;;0.50;0.40;;;21.20;52.80;;;;;;6253497;28;20641;-64
2021/11/07 05:28:34;;;;;;;0.32;0.30;;;21.20;52.90;;;;;;6244059;28;20306;-65
2021/11/07 05:31:35;;;;;;;0.95;0.50;;;21.20;52.90;;;;;;6249252;28;20444;-65
2021/11/07 05:34:36;;;;;;;0.88;0.60;;;21.20;52.90;;;;;;6243656;28;20083;-65
2021/11/07 05:37:37;;;;;;;0.90;0.50;;;21.20;52.90;;;;;;6259428;28;20209;-65
2021/11/07 05:40:38;;;;;;;0.50;0.50;;;21.20;52.80;;;;;;6267938;28;20485;-64
2021/11/07 05:43:40;;;;;;;0.73;0.50;;;21.20;52.80;;;;;;6218803;28;20040;-65
2021/11/07 05:46:42;;;;;;;0.50;0.50;;;21.20;52.80;;;;;;6226657;28;20025;-65
2021/11/07 05:49:43;;;;;;;0.40;0.40;;;21.20;52.90;;;;;;6241819;28;20125;-65
2021/11/07 05:52:44;;;;;;;0.60;0.50;;;21.20;52.80;;;;;;6242994;28;20021;-64
2021/11/07 05:55:44;;;;;;;0.50;0.50;;;21.20;52.70;;;;;;6243168;28;20056;-65
2021/11/07 05:58:45;;;;;;;0.35;0.32;;;21.20;52.80;;;;;;6266710;28;20074;-65
2021/11/07 06:01:46;;;;;;;0.50;0.40;;;21.20;52.80;;;;;;6264673;28;20047;-67
2021/11/07 06:04:48;;;;;;;0.50;0.50;;;21.20;52.80;;;;;;6267993;28;20025;-65
2021/11/07 06:07:49;;;;;;;0.38;0.38;;;21.20;52.80;;;;;;6267276;28;20094;-67
2021/11/07 06:10:50;;;;;;;0.40;0.40;;;21.20;52.80;;;;;;6266277;28;20028;-65
2021/11/07 06:13:51;;;;;;;0.65;0.55;;;21.20;52.90;;;;;;6265945;28;20056;-67
2021/11/07 06:16:51;;;;;;;0.60;0.43;;;21.20;52.70;;;;;;6261677;28;20026;-66
2021/11/07 06:19:52;;;;;;;0.60;0.50;;;21.20;52.80;;;;;;6218561;28;20025;-67
2021/11/07 06:22:52;;;;;;;0.88;0.60;;;21.20;52.80;;;;;;6239562;28;20025;-67
2021/11/07 06:25:53;;;;;;;0.50;0.50;;;21.20;52.70;;;;;;6267403;28;20043;-67
2021/11/07 06:28:56;;;;;;;0.70;0.50;;;21.20;52.80;;;;;;6267206;28;20029;-67
2021/11/07 06:31:57;;;;;;;0.52;0.40;;;21.20;52.80;;;;;;6260896;28;20090;-67
2021/11/07 06:34:58;;;;;;;0.43;0.43;;;21.20;52.80;;;;;;6242766;28;20057;-67
2021/11/07 06:37:59;;;;;;;0.35;0.35;;;21.20;52.70;;;;;;6267925;28;20023;-66
2021/11/07 06:40:59;;;;;;;0.45;0.45;;;21.20;52.70;;;;;;6268812;28;20486;-67
2021/11/07 06:44:00;;;;;;;0.40;0.35;;;21.20;52.70;;;;;;6247092;28;20460;-67
2021/11/07 06:47:01;;;;;;;1.48;0.55;;;21.20;52.70;;;;;;6246850;28;20260;-66
2021/11/07 06:50:03;;;;;;;0.60;0.50;;;21.20;52.80;;;;;;6247028;28;20372;-66
2021/11/07 06:53:04;;;;;;;3.10;0.70;;;21.20;52.80;;;;;;6246213;28;20446;-65
2021/11/07 06:56:06;;;;;;;0.50;0.50;;;21.20;52.70;;;;;;6246861;28;20025;-65
2021/11/07 06:59:07;;;;;;;0.88;0.60;;;21.20;52.70;;;;;;6246833;28;20024;-65
2021/11/07 07:02:08;;;;;;;0.55;0.43;;;21.20;52.70;;;;;;6246538;28;20471;-64
2021/11/07 07:05:11;;;;;;;0.40;0.40;;;21.20;52.70;;;;;;6246467;28;20068;-65
2021/11/07 07:08:21;;;;;;;0.73;0.47;;;21.20;52.80;;;;;;6246336;28;20109;-64
2021/11/07 07:11:41;;;;;;;0.55;0.38;;;21.20;52.80;;;;;;6247897;28;20065;-66
2021/11/07 07:14:54;;;;;;;0.52;0.43;;;21.20;52.70;;;;;;6271096;28;20036;-67
2021/11/07 07:21:28;;;;;;;0.52;0.50;;;21.20;52.80;;;;;;6271180;28;20032;-65
2021/11/07 07:36:53;;;;;;;0.75;0.47;;;21.20;52.70;;;;;;6256515;28;20144;-69
2021/11/07 07:39:54;;;;;;;0.70;0.47;;;21.20;52.80;;;;;;6262441;28;20022;-70
2021/11/07 07:42:55;;;;;;;0.63;0.30;;;21.20;52.80;;;;;;6263388;28;20079;-70
2021/11/07 07:45:59;;;;;;;0.40;0.40;;;21.20;52.70;;;;;;6267605;28;20025;-68
2021/11/07 07:49:00;;;;;;;0.60;0.52;;;21.20;52.80;;;;;;6268523;28;20029;-67
2021/11/07 07:52:01;;;;;;;1.23;0.60;;;21.20;52.80;;;;;;6269937;28;20082;-67
2021/11/07 07:55:04;;;;;;;0.40;0.40;;;21.20;52.70;;;;;;6267861;28;20115;-67
2021/11/07 07:58:04;;;;;;;0.40;0.40;;;21.20;52.70;;;;;;6267597;28;20658;-67
2021/11/07 08:01:07;;;;;;;0.60;0.40;;;21.20;52.70;;;;;;6261367;28;20025;-67
2021/11/07 08:04:08;;;;;;;0.47;0.30;;;21.10;52.70;;;;;;6245771;28;20025;-67
2021/11/07 08:07:08;;;;;;;0.85;0.50;;;21.20;52.70;;;;;;6243523;28;20025;-66
2021/11/07 08:10:11;;;;;;;0.30;0.30;;;21.20;52.70;;;;;;6245375;28;20530;-65
2021/11/07 08:13:12;;;;;;;0.85;0.43;;;21.20;52.80;;;;;;6256217;28;20037;-67
2021/11/07 08:16:12;;;;;;;0.75;0.50;;;21.20;52.80;;;;;;6270061;28;20053;-67
2021/11/07 08:19:14;;;;;;;0.47;0.40;;;21.20;52.90;;;;;;6249960;28;20053;-66
2021/11/07 08:22:17;;;;;;;0.43;0.43;;;21.20;52.90;;;;;;6245087;28;20017;-66
2021/11/07 08:25:22;;;;;;;0.50;0.30;;;21.20;52.80;;;;;;6246253;28;20101;-66
2021/11/07 08:28:23;;;;;;;0.60;0.40;;;21.20;52.80;;;;;;6242652;28;20132;-68
2021/11/07 08:31:28;;;;;;;0.35;0.32;;;21.20;52.80;;;;;;6205475;28;20557;-68
2021/11/07 08:34:29;;;;;;;;;;;21.20;52.90;;;;;;6217125;28;20042;-68
2021/11/07 08:37:56;;;;;;;0.40;0.40;;;21.20;52.80;;;;;;6247836;28;19912;-68
2021/11/07 08:40:56;;;;;;;0.55;0.40;;;21.20;52.70;;;;;;6262955;28;20037;-68
2021/11/07 09:00:14;;;;;;;0.30;0.30;;;21.20;52.80;;;;;;6264325;28;20549;-68
2021/11/07 09:01:09;;;;;;;0.70;0.52;;;21.10;52.70;;;;;;6243526;28;20037;-69
2021/11/07 09:04:23;;;;;;;0.40;0.40;;;21.10;53.40;;;;;;6218612;28;20136;-68
2021/11/07 09:10:36;;;;;;;1.20;0.70;;;21.10;52.60;;;;;;6268124;28;20485;-68
2021/11/07 09:13:37;;;;;;;0.60;0.45;;;21.10;52.60;;;;;;6266965;28;20072;-68
2021/11/07 09:16:38;;;;;;;0.40;0.40;;;21.20;52.70;;;;;;6268063;28;20409;-68
2021/11/07 09:19:40;;;;;;;0.38;0.30;;;21.20;52.70;;;;;;6245984;28;20502;-68
2021/11/07 09:22:46;;;;;;;0.40;0.40;;;21.20;52.70;;;;;;6253483;28;20449;-68
2021/11/07 09:29:13;;;;;;;0.50;0.40;;;21.10;52.60;;;;;;6265190;28;20089;-68
2021/11/07 09:32:26;;;;;;;0.35;0.35;;;21.10;52.60;;;;;;6247642;28;20048;-69
2021/11/07 09:35:44;;;;;;;0.50;0.40;;;21.10;52.60;;;;;;6266180;28;20100;-69
2021/11/07 09:38:50;;;;;;;0.43;0.35;;;21.10;52.60;;;;;;6267684;28;20374;-69
2021/11/07 09:42:15;;;;;;;0.40;0.35;;;21.10;52.60;;;;;;6267178;28;20036;-68
2021/11/07 09:45:30;;;;;;;0.40;0.30;;;21.20;52.70;;;;;;6267346;28;20021;-68
2021/11/07 09:48:36;;;;;;;1.92;0.50;;;21.20;52.70;;;;;;6267099;28;20405;-69
2021/11/07 09:51:38;;;;;;;0.43;0.40;;;21.20;52.50;;;;;;6267225;28;20040;-69
2021/11/07 09:54:44;;;;;;;0.55;0.50;;;21.20;52.70;;;;;;6267240;28;20108;-68
2021/11/07 09:57:47;;;;;;;0.95;0.60;;;21.10;52.40;;;;;;6267235;28;20053;-69
2021/11/07 10:00:53;;;;;;;0.45;0.30;;;21.20;52.60;;;;;;6266980;28;20028;-68
2021/11/07 10:03:55;;;;;;;0.75;0.50;;;21.20;52.60;;;;;;6242900;28;20438;-69
2021/11/07 10:07:15;;;;;;;0.68;0.47;;;21.20;52.50;;;;;;6242764;28;20026;-68
2021/11/07 10:10:20;;;;;;;1.75;0.50;;;21.20;52.50;;;;;;6244201;28;20548;-68
2021/11/07 10:13:23;;;;;;;0.90;0.50;;;21.20;52.50;;;;;;6246638;28;20442;-68
2021/11/07 10:16:43;;;;;;;0.52;0.50;;;21.10;52.40;;;;;;6247159;28;20109;-68
2021/11/07 10:19:57;;;;;;;0.45;0.40;;;21.10;52.40;;;;;;6246879;28;20712;-69
2021/11/07 10:23:33;;;;;;;0.52;0.45;;;21.20;52.50;;;;;;6258166;28;20021;-68
2021/11/07 10:26:35;;;;;;;;;;;21.20;52.40;;;;;;6265156;28;20486;-68
2021/11/07 10:29:53;;;;;;;0.52;0.40;;;21.20;52.40;;;;;;6261440;28;19952;-68
2021/11/07 10:33:05;;;;;;;0.68;0.43;;;21.20;52.50;;;;;;6262468;28;20063;-68
2021/11/07 10:43:42;;;;;;;1.27;0.68;;;21.20;52.50;;;;;;6271137;28;20028;-68
2021/11/07 10:47:00;;;;;;;1.25;0.50;;;21.20;52.40;;;;;;6271136;28;20066;-69
2021/11/07 10:53:28;;;;;;;1.60;0.60;;;21.20;52.40;;;;;;6270916;28;20041;-69
2021/11/07 10:56:28;;;;;;;1.88;0.65;;;21.20;52.40;;;;;;6266735;28;20124;-67
2021/11/07 10:59:29;;;;;;;1.55;0.80;;;21.20;52.40;;;;;;6245669;28;20422;-67
2021/11/07 11:02:34;;;;;;;0.63;0.40;;;21.20;52.40;;;;;;6258061;28;20474;-66
2021/11/07 11:05:45;;;;;;;5.15;0.60;;;21.20;52.40;;;;;;6271116;28;20028;-66
2021/11/07 11:08:54;;;;;;;2.70;0.73;;;21.20;52.40;;;;;;6242192;28;20022;-65
2021/11/07 11:12:05;;;;;;;1.50;0.40;;;21.20;52.40;;;;;;6223841;28;20044;-64
2021/11/07 11:15:24;;;;;;;2.30;0.50;;;21.20;52.40;;;;;;6245748;28;20022;-64
2021/11/07 11:21:38;;;;;;;1.15;0.50;;;21.20;52.50;;;;;;6244805;28;20434;-66
2021/11/07 11:28:28;;;;;;;1.85;0.70;;;21.20;52.50;;;;;;6269612;28;20029;-65
2021/11/07 11:31:37;;;;;;;2.13;0.57;;;21.20;52.50;;;;;;6244304;28;20048;-65
2021/11/07 11:34:57;;;;;;;1.45;0.47;;;21.20;52.50;;;;;;6245159;28;20025;-65
2021/11/07 11:38:13;;;;;;;0.80;0.47;;;21.20;52.50;;;;;;6265575;28;20309;-65
2021/11/07 11:41:22;;;;;;;1.77;0.60;;;21.20;52.50;;;;;;6269895;28;20020;-65
2021/11/07 11:44:24;;;;;;;1.60;0.50;;;21.20;52.40;;;;;;6270233;28;20025;-65
2021/11/07 11:47:43;;;;;;;1.40;0.60;;;21.20;52.50;;;;;;6269584;28;20025;-65
2021/11/07 12:01:09;;;;;;;1.17;0.50;;;21.20;52.60;;;;;;6269711;28;20401;-65
2021/11/07 12:07:21;;;;;;;1.45;0.55;;;21.20;52.60;;;;;;6228946;28;20028;-65
2021/11/07 12:10:32;;;;;;;0.88;0.50;;;21.20;52.50;;;;;;6269216;28;20382;-65
2021/11/07 12:13:52;;;;;;;1.35;0.40;;;21.20;52.60;;;;;;6268356;28;20129;-63
2021/11/07 12:16:59;;;;;;;0.95;0.35;;;21.20;53.20;;;;;;6268860;28;20530;-65
2021/11/07 12:20:01;;;;;;;0.95;0.40;;;21.20;52.60;;;;;;6243345;28;20033;-65
2021/11/07 12:23:28;;;;;;;1.05;0.50;;;21.20;52.50;;;;;;6252324;28;20391;-65
2021/11/07 12:26:30;;;;;;;0.70;0.50;;;21.20;52.60;;;;;;6268263;28;20391;-65
2021/11/07 12:29:38;;;;;;;0.90;0.50;;;21.20;52.60;;;;;;6259663;28;20018;-65
2021/11/07 12:32:41;;;;;;;0.47;0.40;;;21.20;52.50;;;;;;6236876;28;20056;-63
2021/11/07 12:36:02;;;;;;;1.08;0.40;;;21.20;52.50;;;;;;6243313;28;20045;-63
2021/11/07 12:43:04;;;;;;;3.67;0.60;;;21.20;52.40;;;;;;6243246;28;20100;-65
2021/11/07 12:46:17;;;;;;;0.40;0.32;;;21.20;52.40;;;;;;6260019;28;20079;-65
2021/11/07 12:49:27;;;;;;;1.25;0.70;;;21.20;52.40;;;;;;6268331;28;20075;-65
2021/11/07 12:52:28;;;;;;;0.55;0.50;;;21.20;52.40;;;;;;6267804;28;20025;-65
2021/11/07 12:55:31;;;;;;;0.80;0.43;;;21.20;52.40;;;;;;6268207;28;20021;-65
2021/11/07 12:58:31;;;;;;;0.90;0.52;;;21.20;52.40;;;;;;6268117;28;20021;-65
2021/11/07 13:02:43;;;;;;;1.48;0.63;;;21.20;52.40;;;;;;6267687;28;20021;-65
2021/11/07 13:05:54;;;;;;;0.60;0.43;;;21.20;52.40;;;;;;6253767;28;20033;-65
2021/11/07 13:08:59;;;;;;;1.08;0.60;;;21.20;52.40;;;;;;6265852;28;20123;-65
2021/11/07 13:12:09;;;;;;;1.30;0.63;;;21.20;52.40;;;;;;6261266;28;20502;-65
2021/11/07 13:25:08;;;;;;;0.82;0.32;;;21.20;52.40;;;;;;6268577;28;20021;-65
2021/11/07 13:28:17;;;;;;;0.82;0.50;;;21.20;52.40;;;;;;6267979;28;20043;-65
2021/11/07 13:31:23;;;;;;;1.70;0.65;;;21.20;52.40;;;;;;6241943;28;20025;-65
2021/11/07 13:34:26;;;;;;;0.73;0.40;;;21.20;53.00;;;;;;6242652;28;20570;-65
2021/11/07 13:37:39;;;;;;;0.73;0.43;;;21.20;52.40;;;;;;6258138;28;20052;-65
2021/11/07 13:40:41;;;;;;;1.35;0.45;;;21.20;52.30;;;;;;6268419;28;20445;-65
2021/11/07 13:43:48;;;;;;;2.05;0.60;;;21.20;52.30;;;;;;6267386;28;20021;-65
2021/11/07 13:47:00;;;;;;;1.30;0.50;;;21.20;52.30;;;;;;6272380;28;20463;-65
2021/11/07 13:50:04;;;;;;;2.05;0.50;;;21.20;52.30;;;;;;6272469;28;20033;-63
2021/11/07 13:53:05;;;;;;;0.55;0.40;;;21.20;52.30;;;;;;6253521;28;20104;-63
2021/11/07 13:56:10;;;;;;;1.77;0.60;;;21.20;52.40;;;;;;6247576;28;20032;-63
2021/11/07 13:59:11;;;;;;;1.77;0.70;;;21.20;52.40;;;;;;6247623;28;20069;-63
2021/11/07 14:02:24;;;;;;;2.42;0.68;;;21.20;52.40;;;;;;6247210;28;20067;-63
2021/11/07 14:05:25;;;;;;;0.60;0.45;;;21.20;52.40;;;;;;6247091;28;20034;-63
2021/11/07 14:08:26;;;;;;;1.95;0.70;;;21.20;52.40;;;;;;6260433;28;20064;-63
2021/11/07 14:11:28;;;;;;;0.73;0.40;;;21.20;52.40;;;;;;6270024;28;20268;-63
2021/11/07 14:14:29;;;;;;;0.90;0.50;;;21.20;52.40;;;;;;6271848;28;20071;-63
2021/11/07 14:17:29;;;;;;;0.75;0.40;;;21.20;52.50;;;;;;6265985;28;20048;-63
2021/11/07 14:20:38;;;;;;;0.93;0.47;;;21.20;52.50;;;;;;6247382;28;20140;-63
2021/11/07 14:23:47;;;;;;;1.02;0.55;;;21.20;52.50;;;;;;6260873;28;20040;-63
2021/11/07 14:26:53;;;;;;;1.23;0.40;;;21.20;52.50;;;;;;6257840;28;20029;-63
2021/11/07 14:30:05;;;;;;;1.02;0.43;;;21.20;52.50;;;;;;6239045;28;20018;-63
2021/11/07 14:33:14;;;;;;;1.02;0.45;;;21.20;52.50;;;;;;6250626;28;20112;-63
2021/11/07 14:43:07;;;;;;;1.40;0.60;;;21.20;52.50;;;;;;6271248;28;20143;-63
2021/11/07 14:46:26;;;;;;;1.58;0.50;;;21.20;52.50;;;;;;6270980;28;20024;-63
2021/11/07 14:56:05;;;;;;;1.23;0.68;;;21.20;52.50;;;;;;6245806;28;20083;-63
2021/11/07 14:59:12;;;;;;;1.67;0.43;;;21.20;52.60;;;;;;6245783;28;20029;-64
2021/11/07 15:06:00;;;;;;;0.80;0.52;;;21.20;52.50;;;;;;6271136;28;20036;-63
2021/11/07 15:09:11;;;;;;;1.15;0.47;;;21.20;52.50;;;;;;6270374;28;20017;-63
2021/11/07 15:12:38;;;;;;;0.65;0.43;;;21.20;52.50;;;;;;6268543;28;20099;-63
2021/11/07 15:16:29;;;;;;;1.33;0.38;;;21.20;52.60;;;;;;6271024;28;20096;-63
2021/11/07 15:19:23;;;;;;;0.85;0.38;;;21.20;52.50;;;;;;6236332;28;20042;-63
2021/11/07 15:22:42;;;;;;;;;;;21.20;52.60;;;;;;6245277;28;20025;-64
2021/11/07 15:25:44;;;;;;;2.22;0.50;;;21.20;52.50;;;;;;6267907;28;19939;-63
2021/11/07 15:28:55;;;;;;;1.33;0.50;;;21.20;52.50;;;;;;6271728;28;20047;-67
2021/11/07 15:32:08;;;;;;;1.27;0.60;;;21.20;52.50;;;;;;6234627;28;20041;-66
2021/11/07 15:35:24;;;;;;;1.63;0.70;;;21.20;52.50;;;;;;6245431;28;20022;-67
2021/11/07 15:38:25;;;;;;;1.13;0.50;;;21.20;52.50;;;;;;6245466;28;20022;-66
2021/11/07 15:41:26;;;;;;;1.13;0.40;;;21.20;52.50;;;;;;6245928;28;20111;-68
2021/11/07 15:44:27;;;;;;;0.95;0.47;;;21.20;52.50;;;;;;6247062;28;20421;-68
2021/11/07 15:47:49;;;;;;;1.08;0.40;;;21.20;52.50;;;;;;6259953;28;20467;-67
2021/11/07 15:51:01;;;;;;;0.47;0.40;;;21.20;52.50;;;;;;6270578;28;20048;-66
2021/11/07 15:54:19;;;;;;;1.38;0.60;;;21.20;52.50;;;;;;6270829;28;20017;-66
2021/11/07 15:57:33;;;;;;;0.68;0.43;;;21.20;52.50;;;;;;6265843;28;20487;-66
2021/11/07 16:03:53;;;;;;;0.47;0.40;;;21.20;52.60;;;;;;6221211;28;20495;-68
2021/11/07 16:13:27;;;;;;;0.75;0.40;;;21.20;52.60;;;;;;6216680;28;20100;-66
2021/11/07 16:16:43;;;;;;;0.68;0.40;;;21.20;52.60;;;;;;6216746;28;20069;-64
2021/11/07 16:19:46;;;;;;;1.38;0.50;;;21.20;52.60;;;;;;6217636;28;20037;-66
2021/11/07 16:22:51;;;;;;;1.25;0.60;;;21.20;52.60;;;;;;6216491;28;20168;-66
2021/11/07 16:25:53;;;;;;;0.68;0.40;;;21.20;52.60;;;;;;6226804;28;20080;-66
2021/11/07 16:28:54;;;;;;;1.63;0.50;;;21.20;52.50;;;;;;6242211;28;20478;-64
2021/11/07 16:35:26;;;;;;;1.33;0.43;;;21.20;52.50;;;;;;6243735;28;20017;-66
2021/11/07 16:41:52;;;;;;;0.55;0.45;;;21.20;52.50;;;;;;6259638;28;20025;-66
2021/11/07 16:44:53;;;;;;;1.75;0.63;;;21.20;52.50;;;;;;6243675;28;20071;-66
2021/11/07 16:47:59;;;;;;;1.05;0.40;;;21.30;52.60;;;;;;6261489;28;20096;-67
2021/11/07 16:51:19;;;;;;;1.05;0.60;;;21.20;52.50;;;;;;6266687;28;20079;-66
2021/11/07 16:54:23;;;;;;;0.38;0.30;;;21.20;52.50;;;;;;6243519;28;20051;-66
2021/11/07 16:57:27;;;;;;;0.50;0.40;;;21.20;52.50;;;;;;6255163;28;20078;-66
2021/11/07 17:00:34;;;;;;;1.33;0.50;;;21.30;52.60;;;;;;6267961;28;20083;-66
2021/11/07 17:03:36;;;;;;;1.38;0.50;;;21.20;52.50;;;;;;6268261;28;20513;-66
2021/11/07 17:06:43;;;;;;;1.38;0.63;;;21.20;52.50;;;;;;6269216;28;20031;-66
2021/11/07 17:09:47;;;;;;;0.57;0.30;;;21.20;52.50;;;;;;6267690;28;20103;-66
2021/11/07 17:12:55;;;;;;;0.82;0.50;;;21.20;52.50;;;;;;6254370;28;20046;-66
2021/11/07 17:16:32;;;;;;;0.98;0.40;;;21.20;52.60;;;;;;6242520;28;20364;-66
2021/11/07 17:19:34;;;;;;;1.02;0.52;;;21.20;52.50;;;;;;6236615;28;20038;-66
2021/11/07 17:28:58;;;;;;;1.30;0.57;;;21.20;52.50;;;;;;6268067;28;20078;-66
2021/11/07 17:35:23;;;;;;;1.27;0.75;;;21.20;52.60;;;;;;6243292;28;20049;-66
2021/11/07 17:38:30;;;;;;;1.20;0.52;;;21.20;52.50;;;;;;6265928;28;20029;-66
2021/11/07 17:54:42;;;;;;;0.73;0.35;;;21.20;52.60;;;;;;6267671;28;20033;-66
2021/11/07 17:57:43;;;;;;;0.95;0.40;;;21.30;52.70;;;;;;6267000;28;20028;-66
2021/11/07 18:00:44;;;;;;;1.58;0.50;;;21.20;52.50;;;;;;6266269;28;20107;-66
2021/11/07 18:03:50;;;;;;;1.40;0.60;;;21.20;52.50;;;;;;6240059;28;20482;-66
2021/11/07 18:06:58;;;;;;;2.25;0.50;;;21.20;52.50;;;;;;6231801;28;20018;-66
2021/11/07 18:10:02;;;;;;;0.60;0.40;;;21.20;52.50;;;;;;6262475;28;20053;-66
2021/11/07 18:13:05;;;;;;;0.87;0.47;;;21.20;52.50;;;;;;6241798;28;20044;-66
2021/11/07 18:16:06;;;;;;;0.47;0.30;;;21.20;52.60;;;;;;6242287;28;20021;-66
2021/11/07 18:19:07;;;;;;;0.75;0.52;;;21.20;52.60;;;;;;6234586;28;20026;-66
2021/11/07 18:25:17;;;;;;;1.23;0.60;;;21.20;52.50;;;;;;6262249;28;20545;-66
2021/11/07 18:28:19;;;;;;;1.20;0.60;;;21.20;52.40;;;;;;6264750;28;20052;-66
2021/11/07 18:31:21;;;;;;;1.27;0.50;;;21.20;52.50;;;;;;6245463;28;20029;-66
2021/11/07 18:34:21;;;;;;;2.78;0.55;;;21.20;52.50;;;;;;6236458;28;20172;-66
2021/11/07 18:37:24;;;;;;;1.02;0.55;;;21.30;52.50;;;;;;6270936;28;20021;-66
2021/11/07 18:40:26;;;;;;;1.63;0.68;;;21.20;52.50;;;;;;6271509;28;20024;-66
2021/11/07 18:43:27;;;;;;;0.65;0.30;;;21.20;53.10;;;;;;6270729;28;20021;-66
2021/11/07 18:46:28;;;;;;;2.50;0.60;;;21.20;52.40;;;;;;6270860;28;20025;-66
2021/11/07 18:49:29;;;;;;;1.80;0.60;;;21.20;52.40;;;;;;6270768;28;20037;-66
2021/11/07 18:52:30;;;;;;;1.67;0.70;;;21.20;52.40;;;;;;6270738;28;20061;-66
2021/11/07 18:55:33;;;;;;;0.88;0.40;;;21.30;52.50;;;;;;6271189;28;20032;-66
2021/11/07 18:58:34;;;;;;;1.38;0.60;;;21.20;52.40;;;;;;6248636;28;20024;-66